Caneadea, New York
Current Conditions -  °F | °C
As of 4:35 PM on Friday 28 Nov 2014 (Local Time) from KOLE Reporting Station
Overcast Overcast  
Wind Chill: 15°   Ceiling: 2600
Heat Index: 21°   Visibility: 10mi
Dew Point: 14°   Wind: 5mph
Humidity: 74%   Direction: 260°W
Pressure: 30.12"   Gusts: NA
Location:  42.39°N, 78.15°W
Report Text: KOLE 282135Z AUTO 26004KT 10SM OVC026 M06/M10 A3012 RMK AO2
Loading
Personal Weather Stations






























Interactive Weather Map New forecast layout! Learn more

10-Day Weather Forecast

Advertisements
Track Severe Weather on mobile